Time;durP1;ratioP1;P1;durP2;ratioP2;P2;SDS_P1;SDS_P2;PMS_P1;PMS_P2;Temp;Humidity;BMP_temperature;BMP_pressure;BME280_temperature;BME280_humidity;BME280_pressure;Samples;Min_cycle;Max_cycle;Signal;HPM_P1;HPM_P2
2022/04/28 00:00:52;;;;;;;6.60;4.67;;;7.30;99.90;;;;;;4866913;29;20749;-61
2022/04/28 00:03:21;;;;;;;9.70;5.10;;;7.20;99.90;;;;;;4871553;29;20628;-61
2022/04/28 00:05:49;;;;;;;7.80;4.90;;;7.20;99.90;;;;;;4877883;29;20733;-61
2022/04/28 00:08:17;;;;;;;8.37;4.70;;;7.20;99.90;;;;;;4870776;29;20242;-61
2022/04/28 00:10:45;;;;;;;12.77;5.07;;;7.20;99.90;;;;;;4869701;29;20245;-61
2022/04/28 00:13:15;;;;;;;6.93;4.77;;;7.20;99.90;;;;;;4873956;29;20242;-62
2022/04/28 00:15:43;;;;;;;8.07;4.53;;;7.20;99.90;;;;;;4874572;29;20611;-61
2022/04/28 00:18:12;;;;;;;8.87;4.80;;;7.10;99.90;;;;;;4868522;29;20253;-63
2022/04/28 00:20:41;;;;;;;7.10;4.67;;;7.30;99.90;;;;;;4865851;29;20600;-62
2022/04/28 00:23:09;;;;;;;9.63;5.33;;;7.20;99.90;;;;;;4871173;29;20249;-61
2022/04/28 00:25:37;;;;;;;10.23;4.83;;;7.20;99.90;;;;;;4877037;29;20294;-61
2022/04/28 00:28:05;;;;;;;6.90;4.50;;;7.20;99.90;;;;;;4871461;29;20234;-61
2022/04/28 00:30:34;;;;;;;10.60;5.17;;;7.20;99.90;;;;;;4862982;29;20735;-61
2022/04/28 00:33:02;;;;;;;6.10;4.47;;;7.10;99.90;;;;;;4878917;29;20262;-62
2022/04/28 00:35:31;;;;;;;8.27;4.57;;;7.20;99.90;;;;;;4879745;29;20240;-61
2022/04/28 00:37:59;;;;;;;12.00;5.30;;;7.20;99.90;;;;;;4889360;29;20289;-62
2022/04/28 00:40:27;;;;;;;7.70;5.47;;;7.10;99.90;;;;;;4892697;29;20234;-61
2022/04/28 00:43:18;;;;;;;10.70;5.57;;;7.10;99.90;;;;;;4889651;29;20301;-61
2022/04/28 00:45:44;;;;;;;8.07;5.60;;;7.00;99.90;;;;;;4891681;29;20238;-61
2022/04/28 00:51:00;;;;;;;10.80;5.80;;;7.00;99.90;;;;;;4882897;29;20308;-61
2022/04/28 00:53:31;;;;;;;8.17;5.47;;;6.90;99.90;;;;;;4870757;29;20246;-61
2022/04/28 00:56:00;;;;;;;8.83;5.37;;;6.90;99.90;;;;;;4862065;29;20246;-61
2022/04/28 00:58:29;;;;;;;8.03;5.40;;;6.90;99.90;;;;;;4867303;29;20243;-61
2022/04/28 01:00:58;;;;;;;8.37;5.23;;;6.90;99.90;;;;;;4864442;29;20715;-61
2022/04/28 01:03:30;;;;;;;12.17;5.60;;;6.90;99.90;;;;;;4867284;29;20246;-62
2022/04/28 01:05:59;;;;;;;9.53;5.73;;;6.80;99.90;;;;;;4865780;29;20269;-61
2022/04/28 01:08:28;;;;;;;8.97;5.70;;;6.70;99.90;;;;;;4868341;29;20365;-61
2022/04/28 01:10:57;;;;;;;9.93;5.90;;;6.80;99.90;;;;;;4860258;29;20262;-61
2022/04/28 01:13:26;;;;;;;8.93;5.43;;;6.70;99.90;;;;;;4865662;29;20258;-61
2022/04/28 01:16:07;;;;;;;7.43;5.43;;;6.70;99.90;;;;;;4873398;29;20249;-61
2022/04/28 01:18:36;;;;;;;10.43;5.53;;;6.80;99.90;;;;;;4865723;29;20689;-61
2022/04/28 01:21:06;;;;;;;9.63;5.20;;;6.70;99.90;;;;;;4867942;29;20310;-61
2022/04/28 01:23:37;;;;;;;8.13;5.23;;;6.70;99.90;;;;;;4868703;29;20241;-61
2022/04/28 01:26:06;;;;;;;8.87;5.50;;;6.70;99.90;;;;;;4875369;29;20324;-61
2022/04/28 01:28:35;;;;;;;10.07;5.47;;;6.80;99.90;;;;;;4870999;29;20238;-61
2022/04/28 01:31:05;;;;;;;9.77;5.07;;;6.70;99.90;;;;;;4869723;29;20291;-61
2022/04/28 01:33:41;;;;;;;9.00;5.63;;;6.60;99.90;;;;;;4857543;29;20245;-61
2022/04/28 01:36:14;;;;;;;9.40;5.77;;;6.70;99.90;;;;;;4868019;29;20242;-62
2022/04/28 01:38:43;;;;;;;7.10;5.07;;;6.60;99.90;;;;;;4869087;29;20357;-61
2022/04/28 01:41:11;;;;;;;9.13;5.43;;;6.70;99.90;;;;;;4869962;29;20242;-61
2022/04/28 01:43:39;;;;;;;9.67;5.80;;;6.70;99.90;;;;;;4872778;29;20237;-61
2022/04/28 01:46:09;;;;;;;8.27;5.13;;;6.60;99.90;;;;;;4884458;29;20296;-61
2022/04/28 01:48:56;;;;;;;7.07;5.37;;;6.50;99.90;;;;;;4872354;29;20754;-61
2022/04/28 01:57:40;;;;;;;7.37;5.33;;;6.50;99.90;;;;;;4883637;29;20238;-61
2022/04/28 02:00:41;;;;;;;8.37;5.70;;;6.40;99.90;;;;;;4859857;29;20706;-61
2022/04/28 02:03:12;;;;;;;9.40;5.37;;;6.50;99.90;;;;;;4888080;29;20340;-61
2022/04/28 02:05:41;;;;;;;7.30;5.77;;;6.40;99.90;;;;;;4880035;29;20233;-61
2022/04/28 02:08:11;;;;;;;7.87;5.67;;;6.30;99.90;;;;;;4886738;29;20320;-61
2022/04/28 02:10:39;;;;;;;10.40;5.57;;;6.40;99.90;;;;;;4889145;29;20222;-61
2022/04/28 02:13:19;;;;;;;11.43;6.47;;;6.30;99.90;;;;;;4878296;29;20344;-61
2022/04/28 02:16:11;;;;;;;8.73;5.93;;;6.40;99.90;;;;;;4871225;29;20321;-61
2022/04/28 02:19:14;;;;;;;8.27;5.50;;;6.30;99.90;;;;;;4864281;29;20241;-61
2022/04/28 02:21:42;;;;;;;9.03;6.33;;;6.20;99.90;;;;;;4882383;29;20701;-61
2022/04/28 02:24:15;;;;;;;7.97;5.33;;;6.30;99.90;;;;;;4878710;29;20233;-61
2022/04/28 02:26:45;;;;;;;7.87;6.13;;;6.20;99.90;;;;;;4885143;29;20234;-61
2022/04/28 02:29:13;;;;;;;10.47;5.47;;;6.20;99.90;;;;;;4886375;29;20725;-61
2022/04/28 02:31:44;;;;;;;12.57;5.93;;;6.20;99.90;;;;;;4886234;29;20312;-61
2022/04/28 02:34:13;;;;;;;11.90;6.17;;;6.20;99.90;;;;;;4878732;29;20245;-61
2022/04/28 02:36:47;;;;;;;9.03;5.50;;;6.30;99.90;;;;;;4882362;29;20273;-61
2022/04/28 02:39:18;;;;;;;9.30;5.53;;;6.20;99.90;;;;;;4878463;29;20246;-61
2022/04/28 02:41:51;;;;;;;10.13;6.03;;;6.40;99.90;;;;;;4879910;29;20243;-61
2022/04/28 02:44:19;;;;;;;12.13;6.30;;;6.30;99.90;;;;;;4877794;29;20659;-61
2022/04/28 02:46:48;;;;;;;10.40;6.07;;;6.20;99.90;;;;;;4885472;29;20230;-61
2022/04/28 02:49:20;;;;;;;11.90;6.33;;;6.20;99.90;;;;;;4894515;29;20233;-61
2022/04/28 02:51:49;;;;;;;8.73;6.17;;;6.20;99.90;;;;;;4890054;29;20323;-61
2022/04/28 02:54:19;;;;;;;10.97;6.00;;;6.20;99.90;;;;;;4883200;29;20237;-61
2022/04/28 02:56:49;;;;;;;9.80;5.83;;;6.20;99.90;;;;;;4879625;29;20238;-61
2022/04/28 02:59:17;;;;;;;9.50;6.10;;;6.30;99.90;;;;;;4895237;29;20237;-61
2022/04/28 03:01:45;;;;;;;7.77;5.40;;;6.20;99.90;;;;;;4891560;29;20301;-61
2022/04/28 03:04:14;;;;;;;9.00;6.43;;;6.20;99.90;;;;;;4894627;29;20244;-61
2022/04/28 03:12:15;;;;;;;8.80;5.80;;;6.20;99.90;;;;;;4876628;29;20324;-61
2022/04/28 03:14:54;;;;;;;10.03;6.27;;;6.40;99.90;;;;;;4897747;29;20477;-61
2022/04/28 03:17:22;;;;;;;9.27;5.53;;;6.40;99.90;;;;;;4884682;29;20250;-61
2022/04/28 03:19:51;;;;;;;11.67;6.23;;;6.30;99.90;;;;;;4880658;29;20698;-61
2022/04/28 03:22:19;;;;;;;11.53;7.07;;;6.40;99.90;;;;;;4890458;29;20242;-61
2022/04/28 03:24:48;;;;;;;12.50;6.73;;;6.40;99.90;;;;;;4897587;29;20323;-61
2022/04/28 03:27:16;;;;;;;13.13;6.43;;;6.30;99.90;;;;;;4887232;29;20252;-61
2022/04/28 03:29:45;;;;;;;7.60;6.13;;;6.40;99.90;;;;;;4885477;29;20252;-61
2022/04/28 03:32:14;;;;;;;9.73;6.00;;;6.50;99.90;;;;;;4886145;29;20260;-61
2022/04/28 03:34:48;;;;;;;8.27;6.33;;;6.40;99.90;;;;;;4878846;29;20252;-61
2022/04/28 03:37:16;;;;;;;11.60;6.83;;;6.30;99.90;;;;;;4885745;29;20279;-61
2022/04/28 03:39:48;;;;;;;10.70;6.50;;;6.30;99.90;;;;;;4898494;29;20277;-61
2022/04/28 03:42:18;;;;;;;8.23;5.80;;;6.20;99.90;;;;;;4887468;29;20234;-61
2022/04/28 03:44:48;;;;;;;14.50;6.60;;;6.20;99.90;;;;;;4897065;29;20293;-61
2022/04/28 03:47:16;;;;;;;9.77;6.60;;;6.10;99.90;;;;;;4887880;29;20252;-61
2022/04/28 03:49:44;;;;;;;11.47;6.10;;;6.10;99.90;;;;;;4897936;29;20583;-61
2022/04/28 03:52:13;;;;;;;11.93;6.77;;;6.10;99.90;;;;;;4885771;29;20236;-62
2022/04/28 03:54:41;;;;;;;11.57;6.67;;;6.10;99.90;;;;;;4886871;29;20233;-61
2022/04/28 03:57:11;;;;;;;9.83;6.60;;;6.10;99.90;;;;;;4887942;29;20314;-61
2022/04/28 03:59:39;;;;;;;11.83;6.93;;;6.10;99.90;;;;;;4876988;29;20248;-61
2022/04/28 04:02:07;;;;;;;12.17;6.97;;;6.10;99.90;;;;;;4885604;29;20260;-61
2022/04/28 04:04:37;;;;;;;10.17;6.60;;;6.10;99.90;;;;;;4888001;29;20702;-61
2022/04/28 04:07:10;;;;;;;12.93;7.40;;;6.30;99.90;;;;;;4887808;29;20264;-61
2022/04/28 04:09:39;;;;;;;10.83;6.73;;;6.30;99.90;;;;;;4888364;29;20297;-61
2022/04/28 04:12:13;;;;;;;11.17;7.00;;;6.20;99.90;;;;;;4887792;29;20229;-61
2022/04/28 04:15:10;;;;;;;11.80;6.63;;;6.20;99.90;;;;;;4887684;29;20238;-61
2022/04/28 04:17:57;;;;;;;9.50;6.63;;;6.20;99.90;;;;;;4884865;29;20493;-61
2022/04/28 04:20:31;;;;;;;11.27;6.80;;;6.20;99.90;;;;;;4887604;29;20240;-61
2022/04/28 04:23:00;;;;;;;9.37;6.60;;;6.60;99.90;;;;;;4883963;29;20245;-61
2022/04/28 04:25:28;;;;;;;9.20;6.33;;;6.50;99.90;;;;;;4882851;29;20268;-61
2022/04/28 04:28:05;;;;;;;10.40;6.93;;;6.60;99.90;;;;;;4877780;29;20582;-61
2022/04/28 04:33:30;;;;;;;10.90;6.60;;;6.60;99.90;;;;;;4864044;29;20258;-61
2022/04/28 04:35:59;;;;;;;9.63;6.60;;;6.60;99.90;;;;;;4881060;29;20653;-61
2022/04/28 04:38:27;;;;;;;8.87;6.50;;;6.70;99.90;;;;;;4866706;29;20250;-61
2022/04/28 04:40:56;;;;;;;14.47;6.97;;;6.80;99.90;;;;;;4864943;29;20238;-61
2022/04/28 04:43:25;;;;;;;12.80;7.33;;;6.90;99.90;;;;;;4875510;29;20584;-62
2022/04/28 04:45:53;;;;;;;12.80;7.50;;;7.00;99.90;;;;;;4873637;29;20234;-61
2022/04/28 04:48:50;;;;;;;12.80;8.07;;;7.00;99.90;;;;;;4819466;29;20244;-61
2022/04/28 04:51:33;;;;;;;12.70;7.40;;;7.30;99.90;;;;;;4865991;29;20238;-61
2022/04/28 04:54:06;;;;;;;10.83;6.90;;;7.40;99.90;;;;;;4858747;29;20655;-62
2022/04/28 04:56:36;;;;;;;17.50;8.03;;;7.50;99.90;;;;;;4881186;29;20649;-62
2022/04/28 04:59:05;;;;;;;18.80;8.20;;;7.80;99.90;;;;;;4904008;29;20278;-61
2022/04/28 05:01:34;;;;;;;13.23;7.57;;;7.80;99.90;;;;;;4864687;29;20725;-61
2022/04/28 05:04:21;;;;;;;11.63;6.53;;;8.10;99.90;;;;;;4880291;29;20236;-61
2022/04/28 05:07:15;;;;;;;14.10;7.07;;;7.90;99.90;;;;;;4885066;29;20695;-61
2022/04/28 05:09:43;;;;;;;14.10;7.30;;;7.70;99.90;;;;;;4891516;29;20241;-61
2022/04/28 05:12:11;;;;;;;14.50;7.57;;;8.00;99.90;;;;;;4879749;29;20246;-61
2022/04/28 05:14:55;;;;;;;10.00;6.77;;;7.90;99.90;;;;;;4891459;29;20325;-61
2022/04/28 05:17:29;;;;;;;10.47;6.77;;;7.90;99.90;;;;;;4886266;29;20263;-61
2022/04/28 05:20:13;;;;;;;12.47;7.23;;;7.80;99.90;;;;;;4886674;29;20710;-62
2022/04/28 05:23:00;;;;;;;13.73;7.30;;;8.00;99.90;;;;;;4885690;29;20249;-61
2022/04/28 05:25:37;;;;;;;14.10;7.07;;;8.10;99.90;;;;;;4888643;29;20234;-61
2022/04/28 05:28:27;;;;;;;12.33;7.87;;;8.30;99.90;;;;;;4885562;29;20244;-61
2022/04/28 05:31:17;;;;;;;9.57;6.80;;;8.40;99.90;;;;;;4877523;29;20238;-62
2022/04/28 05:34:03;;;;;;;13.00;6.27;;;8.30;99.90;;;;;;4880857;29;20240;-61
2022/04/28 05:36:39;;;;;;;10.87;6.73;;;8.30;99.90;;;;;;4885961;29;20316;-62
2022/04/28 05:39:07;;;;;;;12.83;6.40;;;8.40;99.90;;;;;;4891360;29;20241;-61
2022/04/28 05:41:38;;;;;;;12.70;7.10;;;8.60;99.90;;;;;;4890364;29;20229;-62
2022/04/28 05:46:53;;;;;;;9.50;6.27;;;8.80;99.90;;;;;;4885398;29;20245;-61
2022/04/28 05:49:22;;;;;;;10.80;6.77;;;9.00;99.90;;;;;;4885210;29;20236;-61
2022/04/28 05:51:52;;;;;;;10.23;6.37;;;9.10;99.90;;;;;;4882750;29;20260;-61
2022/04/28 05:54:24;;;;;;;8.57;5.60;;;9.30;99.90;;;;;;4894865;29;20297;-61
2022/04/28 05:56:52;;;;;;;9.50;6.07;;;9.50;99.90;;;;;;4895530;29;20238;-62
2022/04/28 05:59:21;;;;;;;10.33;6.10;;;9.60;99.90;;;;;;4892719;29;20261;-61
2022/04/28 06:02:09;;;;;;;12.53;5.90;;;9.50;99.90;;;;;;4885714;29;20256;-62
2022/04/28 06:04:37;;;;;;;10.23;5.57;;;9.50;99.90;;;;;;4905925;29;20690;-62
2022/04/28 06:07:07;;;;;;;7.67;5.70;;;9.50;99.90;;;;;;4885786;29;20248;-61
2022/04/28 06:09:39;;;;;;;11.17;5.90;;;9.70;99.90;;;;;;4893274;29;20233;-61
2022/04/28 06:12:08;;;;;;;11.00;5.97;;;10.00;99.90;;;;;;4901271;29;20241;-61
2022/04/28 06:14:59;;;;;;;10.23;5.63;;;10.10;99.90;;;;;;4893544;29;20248;-63
2022/04/28 06:17:44;;;;;;;9.50;5.23;;;10.30;99.90;;;;;;4890098;29;20313;-62
2022/04/28 06:20:13;;;;;;;9.17;5.00;;;10.20;99.90;;;;;;4885258;29;20691;-62
2022/04/28 06:23:11;;;;;;;10.80;5.93;;;10.30;99.90;;;;;;4880347;29;20237;-61
2022/04/28 06:25:44;;;;;;;11.50;5.77;;;10.40;99.90;;;;;;4889825;29;20237;-61
2022/04/28 06:28:13;;;;;;;11.77;5.60;;;10.60;99.90;;;;;;4894327;29;20246;-61
2022/04/28 06:30:45;;;;;;;12.53;5.87;;;10.90;99.90;;;;;;4892597;29;20234;-62
2022/04/28 06:33:50;;;;;;;11.40;5.20;;;10.90;99.90;;;;;;4879251;29;20237;-61
2022/04/28 06:36:31;;;;;;;12.83;4.93;;;10.90;99.90;;;;;;4885294;29;20263;-61
2022/04/28 06:39:02;;;;;;;9.03;4.53;;;11.30;99.90;;;;;;4882813;29;20664;-61
2022/04/28 06:41:30;;;;;;;6.90;3.97;;;11.60;99.90;;;;;;4890566;29;20246;-61
2022/04/28 06:44:04;;;;;;;9.33;4.53;;;11.60;99.90;;;;;;4891222;29;20236;-61
2022/04/28 06:46:52;;;;;;;9.30;4.83;;;11.60;99.90;;;;;;4881916;29;20246;-61
2022/04/28 06:49:37;;;;;;;8.63;5.10;;;11.50;99.90;;;;;;4887499;29;20238;-61
2022/04/28 06:52:23;;;;;;;7.30;4.83;;;11.40;99.90;;;;;;4859300;29;20708;-61
2022/04/28 06:55:11;;;;;;;11.07;4.80;;;11.20;99.90;;;;;;4856598;29;20247;-61
2022/04/28 06:57:40;;;;;;;6.83;4.40;;;11.30;99.90;;;;;;4869072;29;20235;-61
2022/04/28 07:00:32;;;;;;;12.03;4.63;;;11.40;99.90;;;;;;4870596;29;20247;-61
2022/04/28 07:03:00;;;;;;;7.43;4.50;;;11.40;99.90;;;;;;4864715;29;20251;-61
2022/04/28 07:05:33;;;;;;;9.90;4.40;;;11.50;99.90;;;;;;4858767;29;20240;-61
2022/04/28 07:08:04;;;;;;;9.33;4.37;;;11.90;99.90;;;;;;4887019;29;20248;-61
2022/04/28 07:10:37;;;;;;;10.20;5.00;;;12.30;99.90;;;;;;4877346;29;20238;-61
2022/04/28 07:13:06;;;;;;;7.97;3.70;;;12.30;99.90;;;;;;4875297;29;20243;-61
2022/04/28 07:15:52;;;;;;;12.63;4.87;;;12.20;99.90;;;;;;4883758;29;20730;-61
2022/04/28 07:18:47;;;;;;;7.80;4.13;;;12.30;99.90;;;;;;4875307;29;20264;-61
2022/04/28 07:21:16;;;;;;;10.20;4.77;;;12.70;99.90;;;;;;4882315;29;20252;-61
2022/04/28 07:23:45;;;;;;;9.93;4.90;;;12.30;99.90;;;;;;4881799;29;20347;-61
2022/04/28 07:26:13;;;;;;;9.80;4.07;;;12.20;99.90;;;;;;4876354;29;20248;-62
2022/04/28 07:28:41;;;;;;;6.83;4.13;;;12.40;99.90;;;;;;4882369;29;20293;-61
2022/04/28 07:31:28;;;;;;;9.77;4.00;;;12.90;99.90;;;;;;4878193;29;20245;-62
2022/04/28 07:34:16;;;;;;;8.70;3.90;;;13.50;99.90;;;;;;4848221;29;20267;-61
2022/04/28 07:37:04;;;;;;;6.20;3.80;;;13.80;99.90;;;;;;4890120;29;20251;-61
2022/04/28 07:39:38;;;;;;;7.30;3.83;;;13.90;99.90;;;;;;4879761;29;20244;-62
2022/04/28 07:42:21;;;;;;;8.13;4.10;;;13.80;99.90;;;;;;4887024;29;20241;-61
2022/04/28 07:44:50;;;;;;;9.87;3.83;;;13.50;99.90;;;;;;4894095;29;20248;-61
2022/04/28 07:47:18;;;;;;;8.03;3.77;;;13.60;99.90;;;;;;4878026;29;20244;-61
2022/04/28 07:50:00;;;;;;;7.17;4.07;;;14.20;99.90;;;;;;4884623;29;20244;-61
2022/04/28 07:52:30;;;;;;;9.13;3.97;;;14.50;99.90;;;;;;4898008;29;20239;-61
2022/04/28 07:54:58;;;;;;;11.43;4.70;;;14.20;99.90;;;;;;4893610;29;20302;-62
2022/04/28 07:57:26;;;;;;;9.07;4.10;;;14.00;99.90;;;;;;4896624;29;20308;-61
2022/04/28 07:59:55;;;;;;;8.47;3.93;;;14.30;99.90;;;;;;4897045;29;20336;-62
2022/04/28 08:02:23;;;;;;;9.23;3.70;;;15.20;99.90;;;;;;4890829;29;20240;-62
2022/04/28 08:04:54;;;;;;;9.03;3.70;;;15.70;99.90;;;;;;4890887;29;20297;-61
2022/04/28 08:07:25;;;;;;;9.67;3.23;;;15.60;99.90;;;;;;4886109;29;20289;-61
2022/04/28 08:09:56;;;;;;;8.03;4.17;;;15.60;99.90;;;;;;4878396;29;20317;-62
2022/04/28 08:12:28;;;;;;;8.40;3.90;;;14.60;99.90;;;;;;4887155;29;20714;-61
2022/04/28 08:15:34;;;;;;;5.93;4.00;;;13.80;99.90;;;;;;4894816;29;20240;-61
2022/04/28 08:18:04;;;;;;;8.57;4.10;;;13.50;99.90;;;;;;4877940;29;20245;-61
2022/04/28 08:20:33;;;;;;;6.93;3.90;;;14.20;99.90;;;;;;4888503;29;20706;-62
2022/04/28 08:23:01;;;;;;;9.10;4.03;;;15.00;99.90;;;;;;4896506;29;20265;-61
2022/04/28 08:25:31;;;;;;;9.00;3.57;;;15.90;99.90;;;;;;4891038;29;20716;-61
2022/04/28 08:27:59;;;;;;;7.80;4.10;;;16.30;99.90;;;;;;4885434;29;20586;-62
2022/04/28 08:30:28;;;;;;;8.23;4.07;;;16.50;99.90;;;;;;4879440;29;20237;-61
2022/04/28 08:32:59;;;;;;;11.17;4.47;;;16.30;99.90;;;;;;4885603;29;20238;-62
2022/04/28 08:35:29;;;;;;;7.70;4.50;;;15.50;99.90;;;;;;4879315;29;20241;-62
2022/04/28 08:37:57;;;;;;;9.27;4.30;;;15.20;99.90;;;;;;4892166;29;20594;-61
2022/04/28 08:40:26;;;;;;;8.03;3.80;;;15.50;99.90;;;;;;4895962;29;20237;-61
2022/04/28 08:42:59;;;;;;;10.70;4.37;;;16.20;99.90;;;;;;4896200;29;20743;-63
2022/04/28 08:45:38;;;;;;;7.57;4.20;;;16.90;99.90;;;;;;4893728;29;20241;-62
2022/04/28 08:48:25;;;;;;;9.40;4.90;;;16.80;99.90;;;;;;4893227;29;20245;-62
2022/04/28 08:51:09;;;;;;;6.93;4.73;;;16.80;99.90;;;;;;4884816;29;20242;-62
2022/04/28 08:53:38;;;;;;;10.67;5.33;;;16.50;99.90;;;;;;4896081;29;20240;-62
2022/04/28 08:56:07;;;;;;;10.30;5.03;;;16.50;99.90;;;;;;4890237;29;20724;-62
2022/04/28 08:58:37;;;;;;;7.50;4.90;;;16.50;99.90;;;;;;4884784;29;20646;-62
2022/04/28 09:01:07;;;;;;;7.63;4.90;;;16.70;99.90;;;;;;4886096;29;20694;-62
2022/04/28 09:03:53;;;;;;;8.70;4.07;;;16.80;99.90;;;;;;4891308;29;20773;-62
2022/04/28 09:07:09;;;;;;;7.67;4.60;;;17.60;99.90;;;;;;4873994;29;20250;-62
2022/04/28 09:09:42;;;;;;;8.70;4.60;;;18.40;99.90;;;;;;4859509;29;20699;-63
2022/04/28 09:12:29;;;;;;;6.50;4.50;;;18.40;99.90;;;;;;4860436;29;20318;-62
2022/04/28 09:15:20;;;;;;;8.30;4.50;;;18.70;99.90;;;;;;4859546;29;20243;-62
2022/04/28 09:17:54;;;;;;;9.53;4.50;;;18.70;99.90;;;;;;4876763;29;20231;-62
2022/04/28 09:20:24;;;;;;;9.23;5.23;;;17.50;99.90;;;;;;4868523;29;20234;-62
2022/04/28 09:22:56;;;;;;;9.30;4.50;;;17.00;99.90;;;;;;4870257;29;20234;-62
2022/04/28 09:25:36;;;;;;;8.57;4.70;;;17.20;99.90;;;;;;4864010;29;20323;-62
2022/04/28 09:28:04;;;;;;;8.57;4.77;;;17.90;99.90;;;;;;4880120;29;20326;-62
2022/04/28 09:30:43;;;;;;;9.07;4.97;;;18.10;99.90;;;;;;4873637;29;20323;-62
2022/04/28 09:33:30;;;;;;;9.63;5.27;;;18.30;99.90;;;;;;4884612;29;20746;-62
2022/04/28 09:36:09;;;;;;;8.50;4.67;;;18.50;99.90;;;;;;4870784;29;20243;-63
2022/04/28 09:42:29;;;;;;;9.60;5.23;;;19.40;99.90;;;;;;4865067;29;20243;-62
2022/04/28 09:44:55;;;;;;;10.17;6.03;;;17.80;99.90;;;;;;4880052;29;20284;-62
2022/04/28 09:47:26;;;;;;;10.03;6.03;;;17.00;99.90;;;;;;4872410;29;20238;-62
2022/04/28 09:49:56;;;;;;;11.10;6.27;;;17.00;99.90;;;;;;4882649;29;20758;-62
2022/04/28 09:52:32;;;;;;;9.73;5.73;;;17.30;99.90;;;;;;4869206;29;20244;-62
2022/04/28 09:55:26;;;;;;;10.97;6.00;;;18.00;99.90;;;;;;4868073;29;20244;-62
2022/04/28 09:58:14;;;;;;;10.07;5.90;;;19.20;99.90;;;;;;4865664;29;20712;-62
2022/04/28 10:00:43;;;;;;;11.30;7.27;;;19.80;99.90;;;;;;4859275;29;20294;-62
2022/04/28 10:03:15;;;;;;;10.27;6.87;;;19.00;99.90;;;;;;4865063;29;20265;-62
2022/04/28 10:05:45;;;;;;;14.73;6.67;;;18.40;99.90;;;;;;4859162;29;20706;-63
2022/04/28 10:08:42;;;;;;;12.47;7.17;;;17.80;99.90;;;;;;4861299;29;20705;-62
2022/04/28 10:11:17;;;;;;;13.53;7.00;;;17.40;99.90;;;;;;4879648;29;20311;-62
2022/04/28 10:13:47;;;;;;;10.23;6.67;;;17.90;99.90;;;;;;4875625;29;20859;-62
2022/04/28 10:16:19;;;;;;;9.33;6.97;;;18.40;99.90;;;;;;4887725;29;20323;-62
2022/04/28 10:18:53;;;;;;;12.83;7.70;;;19.20;99.90;;;;;;4871169;29;20251;-62
2022/04/28 10:21:27;;;;;;;10.83;7.40;;;19.00;99.90;;;;;;4879734;29;20240;-62
2022/04/28 10:33:10;;;;;;;9.57;6.80;;;18.60;99.90;;;;;;4872899;29;20604;-62
2022/04/28 10:35:42;;;;;;;9.77;6.20;;;18.90;99.90;;;;;;4871186;29;20247;-62
2022/04/28 10:38:16;;;;;;;10.37;7.57;;;19.80;99.90;;;;;;4867627;29;20629;-62
2022/04/28 10:40:46;;;;;;;11.77;7.70;;;20.40;99.90;;;;;;4860007;29;20248;-63
2022/04/28 10:43:23;;;;;;;10.53;7.30;;;19.80;99.90;;;;;;4866060;29;20309;-63
2022/04/28 10:45:52;;;;;;;13.17;7.10;;;18.90;99.90;;;;;;4858273;29;20273;-64
2022/04/28 10:48:29;;;;;;;14.03;8.83;;;18.50;99.90;;;;;;4866334;29;20265;-64
2022/04/28 10:51:13;;;;;;;13.70;8.33;;;17.80;99.90;;;;;;4864984;29;20773;-62
2022/04/28 10:54:00;;;;;;;16.47;9.27;;;17.40;99.90;;;;;;4866396;29;20245;-63
2022/04/28 10:56:30;;;;;;;13.60;8.93;;;17.00;99.90;;;;;;4873458;29;20731;-63
2022/04/28 10:59:01;;;;;;;17.17;9.37;;;17.00;99.90;;;;;;4872026;29;20279;-62
2022/04/28 11:01:33;;;;;;;13.03;8.77;;;17.60;99.90;;;;;;4868740;29;20247;-63
2022/04/28 11:04:03;;;;;;;13.00;9.40;;;18.20;99.90;;;;;;4867994;29;20247;-63
2022/04/28 11:06:36;;;;;;;11.67;9.80;;;18.60;99.90;;;;;;4873647;29;20244;-63
2022/04/28 11:09:05;;;;;;;14.70;9.07;;;18.10;99.90;;;;;;4870465;29;20249;-62
2022/04/28 11:11:43;;;;;;;11.33;9.60;;;17.40;99.90;;;;;;4871489;29;20861;-62
2022/04/28 11:14:12;;;;;;;11.50;9.50;;;16.90;99.90;;;;;;4869614;29;20245;-63
2022/04/28 11:16:41;;;;;;;11.77;9.37;;;17.20;99.90;;;;;;4870021;29;20233;-63
2022/04/28 11:19:11;;;;;;;11.93;9.00;;;17.70;99.90;;;;;;4879443;29;20703;-63
2022/04/28 11:21:43;;;;;;;10.77;8.93;;;18.00;99.90;;;;;;4873326;29;20654;-63
2022/04/28 11:24:12;;;;;;;11.20;8.90;;;18.20;99.90;;;;;;4876921;29;20235;-63
2022/04/28 11:26:52;;;;;;;10.73;8.80;;;18.20;99.90;;;;;;4868539;29;20239;-62
2022/04/28 11:29:39;;;;;;;8.87;7.27;;;18.60;99.90;;;;;;4860280;29;20720;-63
2022/04/28 11:32:09;;;;;;;9.97;7.60;;;19.20;99.90;;;;;;4877526;29;20244;-63
2022/04/28 11:34:39;;;;;;;9.37;6.83;;;18.70;99.90;;;;;;4889778;29;20268;-62
2022/04/28 11:37:16;;;;;;;10.93;7.00;;;18.10;99.90;;;;;;4886982;29;20585;-63
2022/04/28 11:39:44;;;;;;;11.00;6.37;;;19.00;99.90;;;;;;4879773;29;20308;-62
2022/04/28 11:42:13;;;;;;;11.77;6.33;;;19.30;99.90;;;;;;4891684;29;20258;-64
2022/04/28 11:44:45;;;;;;;11.60;5.93;;;18.50;99.90;;;;;;4893113;29;20274;-63
2022/04/28 11:47:14;;;;;;;10.27;6.00;;;17.70;99.90;;;;;;4888796;29;20329;-63
2022/04/28 11:49:43;;;;;;;9.40;6.33;;;17.40;99.90;;;;;;4885581;29;20232;-62
2022/04/28 11:52:20;;;;;;;10.37;6.20;;;17.60;99.90;;;;;;4888361;29;20504;-63
2022/04/28 11:54:50;;;;;;;10.47;5.80;;;17.40;99.90;;;;;;4882084;29;20291;-63
2022/04/28 11:57:19;;;;;;;12.27;6.03;;;17.00;99.90;;;;;;4881257;29;20308;-62
2022/04/28 11:59:48;;;;;;;12.73;5.73;;;16.90;99.90;;;;;;4879620;29;20242;-63
2022/04/28 12:02:26;;;;;;;18.93;6.23;;;17.00;99.90;;;;;;4894471;29;20258;-62
2022/04/28 12:04:55;;;;;;;9.57;5.33;;;16.90;99.90;;;;;;4896085;29;20709;-63
2022/04/28 12:07:28;;;;;;;11.03;5.37;;;16.40;99.90;;;;;;4888360;29;20725;-63
2022/04/28 12:15:29;;;;;;;10.40;4.73;;;17.10;99.90;;;;;;4884532;29;21022;-62
2022/04/28 12:21:01;;;;;;;11.23;4.30;;;17.10;99.90;;;;;;4854603;29;20307;-62
2022/04/28 12:23:32;;;;;;;13.57;4.23;;;17.10;99.90;;;;;;4857933;29;20249;-63
2022/04/28 12:26:01;;;;;;;10.10;4.37;;;17.20;99.90;;;;;;4869679;29;20275;-63
2022/04/28 12:28:31;;;;;;;7.00;4.20;;;17.30;99.90;;;;;;4886640;29;20325;-63
2022/04/28 12:31:02;;;;;;;9.40;4.20;;;17.20;99.90;;;;;;4880883;29;20326;-62
2022/04/28 12:33:33;;;;;;;8.93;4.20;;;16.90;99.90;;;;;;4895696;29;20306;-63
2022/04/28 12:36:02;;;;;;;9.07;4.50;;;17.00;99.90;;;;;;4887185;29;20243;-63
2022/04/28 12:38:34;;;;;;;8.97;4.17;;;16.90;99.90;;;;;;4886131;29;20726;-63
2022/04/28 12:41:14;;;;;;;10.27;3.90;;;16.70;99.90;;;;;;4880620;29;20242;-63
2022/04/28 12:43:45;;;;;;;9.50;4.23;;;16.30;99.90;;;;;;4890167;29;20245;-63
2022/04/28 12:46:15;;;;;;;11.87;4.03;;;16.10;99.90;;;;;;4884383;29;20248;-63
2022/04/28 12:48:45;;;;;;;7.87;3.40;;;16.10;99.90;;;;;;4889493;29;20245;-63
2022/04/28 12:51:16;;;;;;;8.27;3.50;;;16.20;99.90;;;;;;4880053;29;20293;-63
2022/04/28 12:53:48;;;;;;;8.30;2.90;;;16.30;99.90;;;;;;4885235;29;20302;-63
2022/04/28 12:56:18;;;;;;;8.00;3.20;;;16.40;99.90;;;;;;4888589;29;20320;-62
2022/04/28 12:58:48;;;;;;;8.07;3.20;;;16.60;99.90;;;;;;4883640;29;20242;-63
2022/04/28 13:01:20;;;;;;;8.70;2.93;;;16.50;99.90;;;;;;4882652;29;20567;-62
2022/04/28 13:04:07;;;;;;;10.83;3.20;;;16.30;99.90;;;;;;4885125;29;20237;-63
2022/04/28 13:06:39;;;;;;;15.10;4.03;;;16.20;99.90;;;;;;4885562;29;20233;-62
2022/04/28 13:09:09;;;;;;;9.77;3.33;;;16.20;99.90;;;;;;4887629;29;20241;-63
2022/04/28 13:11:39;;;;;;;6.90;2.60;;;16.30;99.90;;;;;;4884284;29;20241;-63
2022/04/28 13:14:09;;;;;;;7.07;3.30;;;16.20;99.90;;;;;;4887101;29;20237;-62
2022/04/28 13:16:39;;;;;;;9.10;2.70;;;16.10;99.90;;;;;;4885456;29;20242;-62
2022/04/28 13:19:08;;;;;;;7.00;2.60;;;16.10;99.90;;;;;;4888042;29;20245;-63
2022/04/28 13:21:39;;;;;;;7.93;2.63;;;15.90;99.90;;;;;;4883470;29;20245;-62
2022/04/28 13:24:09;;;;;;;8.93;2.73;;;15.90;99.90;;;;;;4883957;29;20721;-63
2022/04/28 13:26:38;;;;;;;6.67;2.80;;;15.70;99.90;;;;;;4885031;29;20237;-63
2022/04/28 13:29:06;;;;;;;6.00;2.57;;;15.60;99.90;;;;;;4884872;29;20241;-63
2022/04/28 13:31:35;;;;;;;7.17;2.73;;;15.50;99.90;;;;;;4882427;29;20242;-63
2022/04/28 13:34:03;;;;;;;6.67;2.30;;;15.40;99.90;;;;;;4884039;29;20249;-63
2022/04/28 13:36:31;;;;;;;5.83;2.00;;;15.50;99.90;;;;;;4883351;29;20349;-63
2022/04/28 13:38:59;;;;;;;8.87;2.00;;;15.40;99.90;;;;;;4884736;29;20725;-63
2022/04/28 13:41:31;;;;;;;3.43;1.43;;;15.30;99.90;;;;;;4881408;29;20256;-63
2022/04/28 13:43:59;;;;;;;4.40;2.20;;;15.20;99.90;;;;;;4884684;29;20257;-63
2022/04/28 13:46:28;;;;;;;6.30;1.70;;;15.10;99.90;;;;;;4883500;29;20233;-62
2022/04/28 13:48:58;;;;;;;4.03;1.73;;;15.00;99.90;;;;;;4884808;29;20755;-62
2022/04/28 13:51:26;;;;;;;6.50;1.87;;;14.80;99.90;;;;;;4880584;29;20261;-63
2022/04/28 13:53:54;;;;;;;4.73;1.73;;;14.80;99.90;;;;;;4884111;29;20233;-63
2022/04/28 13:56:24;;;;;;;6.30;1.77;;;14.80;99.90;;;;;;4883069;29;20241;-63
2022/04/28 13:58:53;;;;;;;5.00;1.50;;;14.80;99.90;;;;;;4885298;29;20249;-63
2022/04/28 14:01:22;;;;;;;3.27;1.70;;;14.70;99.90;;;;;;4879630;29;21065;-62